sensor_id;sensor_type;location;lat;lon;timestamp;P1;durP1;ratioP1;P2;durP2;ratioP2
69057;SDS011;56128;37.534;-122.308;2024-02-26T00:00:47;4.07;;;2.33;;
69057;SDS011;56128;37.534;-122.308;2024-02-26T00:03:13;3.90;;;2.30;;
69057;SDS011;56128;37.534;-122.308;2024-02-26T00:05:39;5.80;;;2.25;;
69057;SDS011;56128;37.534;-122.308;2024-02-26T00:08:05;7.22;;;2.47;;
69057;SDS011;56128;37.534;-122.308;2024-02-26T00:10:31;4.05;;;2.03;;
69057;SDS011;56128;37.534;-122.308;2024-02-26T00:12:57;7.50;;;2.30;;
69057;SDS011;56128;37.534;-122.308;2024-02-26T00:15:23;6.22;;;2.13;;
69057;SDS011;56128;37.534;-122.308;2024-02-26T00:17:50;5.88;;;2.20;;
69057;SDS011;56128;37.534;-122.308;2024-02-26T00:20:16;5.20;;;2.13;;
69057;SDS011;56128;37.534;-122.308;2024-02-26T00:22:42;5.53;;;2.00;;
69057;SDS011;56128;37.534;-122.308;2024-02-26T00:25:08;5.63;;;1.90;;
69057;SDS011;56128;37.534;-122.308;2024-02-26T00:27:34;6.10;;;1.70;;
69057;SDS011;56128;37.534;-122.308;2024-02-26T00:30:01;5.80;;;2.10;;
69057;SDS011;56128;37.534;-122.308;2024-02-26T00:32:27;5.45;;;1.88;;
69057;SDS011;56128;37.534;-122.308;2024-02-26T00:34:53;4.03;;;1.70;;
69057;SDS011;56128;37.534;-122.308;2024-02-26T00:37:19;4.82;;;1.75;;
69057;SDS011;56128;37.534;-122.308;2024-02-26T00:39:45;6.35;;;2.08;;
69057;SDS011;56128;37.534;-122.308;2024-02-26T00:42:11;4.95;;;1.85;;
69057;SDS011;56128;37.534;-122.308;2024-02-26T00:44:38;3.50;;;1.65;;
69057;SDS011;56128;37.534;-122.308;2024-02-26T00:47:04;5.43;;;2.10;;
69057;SDS011;56128;37.534;-122.308;2024-02-26T00:49:30;5.13;;;1.90;;
69057;SDS011;56128;37.534;-122.308;2024-02-26T00:51:56;4.80;;;2.00;;
69057;SDS011;56128;37.534;-122.308;2024-02-26T00:54:22;5.00;;;2.15;;
69057;SDS011;56128;37.534;-122.308;2024-02-26T00:56:48;5.45;;;2.17;;
69057;SDS011;56128;37.534;-122.308;2024-02-26T00:59:14;3.53;;;2.10;;
69057;SDS011;56128;37.534;-122.308;2024-02-26T01:01:40;4.43;;;2.28;;
69057;SDS011;56128;37.534;-122.308;2024-02-26T01:04:07;6.10;;;2.00;;
69057;SDS011;56128;37.534;-122.308;2024-02-26T01:06:33;5.80;;;2.00;;
69057;SDS011;56128;37.534;-122.308;2024-02-26T01:08:59;5.10;;;2.22;;
69057;SDS011;56128;37.534;-122.308;2024-02-26T01:11:25;6.18;;;1.95;;
69057;SDS011;56128;37.534;-122.308;2024-02-26T01:13:51;4.30;;;1.83;;
69057;SDS011;56128;37.534;-122.308;2024-02-26T01:16:22;4.57;;;2.13;;
69057;SDS011;56128;37.534;-122.308;2024-02-26T01:18:49;6.88;;;2.15;;
69057;SDS011;56128;37.534;-122.308;2024-02-26T01:21:15;4.88;;;2.10;;
69057;SDS011;56128;37.534;-122.308;2024-02-26T01:23:41;5.35;;;2.10;;
69057;SDS011;56128;37.534;-122.308;2024-02-26T01:26:07;6.82;;;2.20;;
69057;SDS011;56128;37.534;-122.308;2024-02-26T01:28:34;5.80;;;2.40;;
69057;SDS011;56128;37.534;-122.308;2024-02-26T01:31:00;3.38;;;1.90;;
69057;SDS011;56128;37.534;-122.308;2024-02-26T01:33:26;6.47;;;1.90;;
69057;SDS011;56128;37.534;-122.308;2024-02-26T01:35:52;4.40;;;2.00;;
69057;SDS011;56128;37.534;-122.308;2024-02-26T01:38:18;3.42;;;1.90;;
69057;SDS011;56128;37.534;-122.308;2024-02-26T01:40:44;4.28;;;1.90;;
69057;SDS011;56128;37.534;-122.308;2024-02-26T01:43:11;3.90;;;2.10;;
69057;SDS011;56128;37.534;-122.308;2024-02-26T01:45:37;5.32;;;2.03;;
69057;SDS011;56128;37.534;-122.308;2024-02-26T01:48:03;4.80;;;2.60;;
69057;SDS011;56128;37.534;-122.308;2024-02-26T01:50:30;4.28;;;1.60;;
69057;SDS011;56128;37.534;-122.308;2024-02-26T01:52:56;6.03;;;2.38;;
69057;SDS011;56128;37.534;-122.308;2024-02-26T01:55:23;5.10;;;2.10;;
69057;SDS011;56128;37.534;-122.308;2024-02-26T01:57:51;4.25;;;2.20;;
69057;SDS011;56128;37.534;-122.308;2024-02-26T02:00:18;3.00;;;2.03;;
69057;SDS011;56128;37.534;-122.308;2024-02-26T02:02:45;4.72;;;2.00;;
69057;SDS011;56128;37.534;-122.308;2024-02-26T02:05:16;5.05;;;1.90;;
69057;SDS011;56128;37.534;-122.308;2024-02-26T02:07:43;4.78;;;1.85;;
69057;SDS011;56128;37.534;-122.308;2024-02-26T02:10:09;5.65;;;2.33;;
69057;SDS011;56128;37.534;-122.308;2024-02-26T02:12:36;4.20;;;1.80;;
69057;SDS011;56128;37.534;-122.308;2024-02-26T02:15:05;2.88;;;1.98;;
69057;SDS011;56128;37.534;-122.308;2024-02-26T02:17:32;5.50;;;2.15;;
69057;SDS011;56128;37.534;-122.308;2024-02-26T02:19:58;5.35;;;1.98;;
69057;SDS011;56128;37.534;-122.308;2024-02-26T02:22:24;4.80;;;2.28;;
69057;SDS011;56128;37.534;-122.308;2024-02-26T02:24:51;5.18;;;2.30;;
69057;SDS011;56128;37.534;-122.308;2024-02-26T02:27:19;4.38;;;2.58;;
69057;SDS011;56128;37.534;-122.308;2024-02-26T02:29:46;5.35;;;2.00;;
69057;SDS011;56128;37.534;-122.308;2024-02-26T02:32:13;5.93;;;2.25;;
69057;SDS011;56128;37.534;-122.308;2024-02-26T02:34:41;6.63;;;2.45;;
69057;SDS011;56128;37.534;-122.308;2024-02-26T02:37:07;4.97;;;2.08;;
69057;SDS011;56128;37.534;-122.308;2024-02-26T02:39:33;4.18;;;2.65;;
69057;SDS011;56128;37.534;-122.308;2024-02-26T02:42:00;5.65;;;2.58;;
69057;SDS011;56128;37.534;-122.308;2024-02-26T02:44:26;5.00;;;2.42;;
69057;SDS011;56128;37.534;-122.308;2024-02-26T02:46:52;7.43;;;2.40;;
69057;SDS011;56128;37.534;-122.308;2024-02-26T02:49:18;5.45;;;2.38;;
69057;SDS011;56128;37.534;-122.308;2024-02-26T02:51:44;4.40;;;2.33;;
69057;SDS011;56128;37.534;-122.308;2024-02-26T02:54:10;5.30;;;2.80;;
69057;SDS011;56128;37.534;-122.308;2024-02-26T02:56:37;4.60;;;2.45;;
69057;SDS011;56128;37.534;-122.308;2024-02-26T02:59:03;5.70;;;2.47;;
69057;SDS011;56128;37.534;-122.308;2024-02-26T03:01:29;9.40;;;3.28;;
69057;SDS011;56128;37.534;-122.308;2024-02-26T03:03:55;12.45;;;6.97;;
69057;SDS011;56128;37.534;-122.308;2024-02-26T03:06:22;5.03;;;2.40;;
69057;SDS011;56128;37.534;-122.308;2024-02-26T03:08:48;4.68;;;2.42;;
69057;SDS011;56128;37.534;-122.308;2024-02-26T03:11:14;6.05;;;2.85;;
69057;SDS011;56128;37.534;-122.308;2024-02-26T03:13:41;4.55;;;2.60;;
69057;SDS011;56128;37.534;-122.308;2024-02-26T03:16:07;4.68;;;2.40;;
69057;SDS011;56128;37.534;-122.308;2024-02-26T03:18:33;6.28;;;2.60;;
69057;SDS011;56128;37.534;-122.308;2024-02-26T03:21:00;5.90;;;2.75;;
69057;SDS011;56128;37.534;-122.308;2024-02-26T03:23:26;10.23;;;2.70;;
69057;SDS011;56128;37.534;-122.308;2024-02-26T03:25:52;5.63;;;2.60;;
69057;SDS011;56128;37.534;-122.308;2024-02-26T03:28:18;5.97;;;2.50;;
69057;SDS011;56128;37.534;-122.308;2024-02-26T03:30:44;4.90;;;2.28;;
69057;SDS011;56128;37.534;-122.308;2024-02-26T03:33:10;4.07;;;2.45;;
69057;SDS011;56128;37.534;-122.308;2024-02-26T03:35:36;4.45;;;2.40;;
69057;SDS011;56128;37.534;-122.308;2024-02-26T03:38:03;4.53;;;2.60;;
69057;SDS011;56128;37.534;-122.308;2024-02-26T03:40:29;7.47;;;2.50;;
69057;SDS011;56128;37.534;-122.308;2024-02-26T03:42:55;6.25;;;2.40;;
69057;SDS011;56128;37.534;-122.308;2024-02-26T03:45:22;3.42;;;2.20;;
69057;SDS011;56128;37.534;-122.308;2024-02-26T03:47:49;4.07;;;2.40;;
69057;SDS011;56128;37.534;-122.308;2024-02-26T03:50:15;6.75;;;2.75;;
69057;SDS011;56128;37.534;-122.308;2024-02-26T03:52:41;5.43;;;2.78;;
69057;SDS011;56128;37.534;-122.308;2024-02-26T03:55:08;5.55;;;2.40;;
69057;SDS011;56128;37.534;-122.308;2024-02-26T03:57:35;5.82;;;2.55;;
69057;SDS011;56128;37.534;-122.308;2024-02-26T04:00:02;4.78;;;2.75;;
69057;SDS011;56128;37.534;-122.308;2024-02-26T04:02:28;4.25;;;2.50;;
69057;SDS011;56128;37.534;-122.308;2024-02-26T04:04:54;5.20;;;2.58;;
69057;SDS011;56128;37.534;-122.308;2024-02-26T04:07:21;5.55;;;2.80;;
69057;SDS011;56128;37.534;-122.308;2024-02-26T04:09:47;6.93;;;2.97;;
69057;SDS011;56128;37.534;-122.308;2024-02-26T04:12:13;6.55;;;2.88;;
69057;SDS011;56128;37.534;-122.308;2024-02-26T04:14:39;6.70;;;2.95;;
69057;SDS011;56128;37.534;-122.308;2024-02-26T04:17:05;6.72;;;3.40;;
69057;SDS011;56128;37.534;-122.308;2024-02-26T04:19:32;7.63;;;2.95;;
69057;SDS011;56128;37.534;-122.308;2024-02-26T04:21:58;5.05;;;2.70;;
69057;SDS011;56128;37.534;-122.308;2024-02-26T04:24:25;5.53;;;2.95;;
69057;SDS011;56128;37.534;-122.308;2024-02-26T04:26:51;9.98;;;2.92;;
69057;SDS011;56128;37.534;-122.308;2024-02-26T04:29:17;7.32;;;2.80;;
69057;SDS011;56128;37.534;-122.308;2024-02-26T04:31:43;8.90;;;3.17;;
69057;SDS011;56128;37.534;-122.308;2024-02-26T04:34:11;6.97;;;3.85;;
69057;SDS011;56128;37.534;-122.308;2024-02-26T04:36:37;6.05;;;3.25;;
69057;SDS011;56128;37.534;-122.308;2024-02-26T04:39:03;7.07;;;3.42;;
69057;SDS011;56128;37.534;-122.308;2024-02-26T04:41:29;7.20;;;3.00;;
69057;SDS011;56128;37.534;-122.308;2024-02-26T04:43:56;5.63;;;2.92;;
69057;SDS011;56128;37.534;-122.308;2024-02-26T04:46:22;4.07;;;2.53;;
69057;SDS011;56128;37.534;-122.308;2024-02-26T04:48:48;3.85;;;2.80;;
69057;SDS011;56128;37.534;-122.308;2024-02-26T04:51:14;7.40;;;2.97;;
69057;SDS011;56128;37.534;-122.308;2024-02-26T04:53:40;9.90;;;2.97;;
69057;SDS011;56128;37.534;-122.308;2024-02-26T04:56:07;7.22;;;3.10;;
69057;SDS011;56128;37.534;-122.308;2024-02-26T04:58:33;5.65;;;3.47;;
69057;SDS011;56128;37.534;-122.308;2024-02-26T05:00:59;7.90;;;3.00;;
69057;SDS011;56128;37.534;-122.308;2024-02-26T05:03:25;4.35;;;2.97;;
69057;SDS011;56128;37.534;-122.308;2024-02-26T05:05:51;6.47;;;2.85;;
69057;SDS011;56128;37.534;-122.308;2024-02-26T05:08:17;5.35;;;2.90;;
69057;SDS011;56128;37.534;-122.308;2024-02-26T05:10:45;5.75;;;3.00;;
69057;SDS011;56128;37.534;-122.308;2024-02-26T05:13:11;8.57;;;3.40;;
69057;SDS011;56128;37.534;-122.308;2024-02-26T05:15:37;5.90;;;3.38;;
69057;SDS011;56128;37.534;-122.308;2024-02-26T05:18:03;7.90;;;3.70;;
69057;SDS011;56128;37.534;-122.308;2024-02-26T05:20:29;5.60;;;3.55;;
69057;SDS011;56128;37.534;-122.308;2024-02-26T05:22:56;6.63;;;3.22;;
69057;SDS011;56128;37.534;-122.308;2024-02-26T05:25:24;5.00;;;3.33;;
69057;SDS011;56128;37.534;-122.308;2024-02-26T05:27:50;6.72;;;3.38;;
69057;SDS011;56128;37.534;-122.308;2024-02-26T05:30:16;6.22;;;3.42;;
69057;SDS011;56128;37.534;-122.308;2024-02-26T05:32:42;6.22;;;3.92;;
69057;SDS011;56128;37.534;-122.308;2024-02-26T05:35:09;7.03;;;3.60;;
69057;SDS011;56128;37.534;-122.308;2024-02-26T05:37:35;6.20;;;3.40;;
69057;SDS011;56128;37.534;-122.308;2024-02-26T05:40:01;7.63;;;3.45;;
69057;SDS011;56128;37.534;-122.308;2024-02-26T05:42:29;9.27;;;3.35;;
69057;SDS011;56128;37.534;-122.308;2024-02-26T05:44:56;6.75;;;3.40;;
69057;SDS011;56128;37.534;-122.308;2024-02-26T05:47:22;8.43;;;3.38;;
69057;SDS011;56128;37.534;-122.308;2024-02-26T05:49:48;5.35;;;3.40;;
69057;SDS011;56128;37.534;-122.308;2024-02-26T05:52:14;5.95;;;3.00;;
69057;SDS011;56128;37.534;-122.308;2024-02-26T05:54:40;9.45;;;3.63;;
69057;SDS011;56128;37.534;-122.308;2024-02-26T05:57:06;8.70;;;3.30;;
69057;SDS011;56128;37.534;-122.308;2024-02-26T05:59:32;4.78;;;3.15;;
69057;SDS011;56128;37.534;-122.308;2024-02-26T06:01:59;4.88;;;3.10;;
69057;SDS011;56128;37.534;-122.308;2024-02-26T06:04:25;6.88;;;3.50;;
69057;SDS011;56128;37.534;-122.308;2024-02-26T06:06:51;6.45;;;3.65;;
69057;SDS011;56128;37.534;-122.308;2024-02-26T06:09:17;6.38;;;3.53;;
69057;SDS011;56128;37.534;-122.308;2024-02-26T06:11:43;6.25;;;3.88;;
69057;SDS011;56128;37.534;-122.308;2024-02-26T06:14:09;7.65;;;4.10;;
69057;SDS011;56128;37.534;-122.308;2024-02-26T06:16:36;9.70;;;4.93;;
69057;SDS011;56128;37.534;-122.308;2024-02-26T06:19:02;14.18;;;4.47;;
69057;SDS011;56128;37.534;-122.308;2024-02-26T06:21:29;7.40;;;4.28;;
69057;SDS011;56128;37.534;-122.308;2024-02-26T06:23:55;7.13;;;3.88;;
69057;SDS011;56128;37.534;-122.308;2024-02-26T06:26:21;5.75;;;3.72;;
69057;SDS011;56128;37.534;-122.308;2024-02-26T06:28:47;7.10;;;3.40;;
69057;SDS011;56128;37.534;-122.308;2024-02-26T06:31:13;8.55;;;3.50;;
69057;SDS011;56128;37.534;-122.308;2024-02-26T06:33:39;6.47;;;3.70;;
69057;SDS011;56128;37.534;-122.308;2024-02-26T06:36:06;5.78;;;3.67;;
69057;SDS011;56128;37.534;-122.308;2024-02-26T06:38:32;7.10;;;3.53;;
69057;SDS011;56128;37.534;-122.308;2024-02-26T06:40:59;5.18;;;3.20;;
69057;SDS011;56128;37.534;-122.308;2024-02-26T06:43:25;6.97;;;3.53;;
69057;SDS011;56128;37.534;-122.308;2024-02-26T06:45:51;6.32;;;3.58;;
69057;SDS011;56128;37.534;-122.308;2024-02-26T06:48:17;6.32;;;3.10;;
69057;SDS011;56128;37.534;-122.308;2024-02-26T06:50:43;5.32;;;3.28;;
69057;SDS011;56128;37.534;-122.308;2024-02-26T06:53:09;6.90;;;3.38;;
69057;SDS011;56128;37.534;-122.308;2024-02-26T06:55:35;6.93;;;3.38;;
69057;SDS011;56128;37.534;-122.308;2024-02-26T06:58:05;7.25;;;4.15;;
69057;SDS011;56128;37.534;-122.308;2024-02-26T07:00:31;6.47;;;3.47;;
69057;SDS011;56128;37.534;-122.308;2024-02-26T07:02:57;6.90;;;2.92;;
69057;SDS011;56128;37.534;-122.308;2024-02-26T07:05:24;5.70;;;2.80;;
69057;SDS011;56128;37.534;-122.308;2024-02-26T07:07:50;5.15;;;2.97;;
69057;SDS011;56128;37.534;-122.308;2024-02-26T07:10:16;6.55;;;3.13;;
69057;SDS011;56128;37.534;-122.308;2024-02-26T07:12:42;5.20;;;3.10;;
69057;SDS011;56128;37.534;-122.308;2024-02-26T07:15:09;8.25;;;2.72;;
69057;SDS011;56128;37.534;-122.308;2024-02-26T07:17:35;7.72;;;3.10;;
69057;SDS011;56128;37.534;-122.308;2024-02-26T07:20:02;9.27;;;3.03;;
69057;SDS011;56128;37.534;-122.308;2024-02-26T07:22:31;3.53;;;2.80;;
69057;SDS011;56128;37.534;-122.308;2024-02-26T07:24:57;6.78;;;3.05;;
69057;SDS011;56128;37.534;-122.308;2024-02-26T07:27:23;6.35;;;2.83;;
69057;SDS011;56128;37.534;-122.308;2024-02-26T07:29:49;4.65;;;2.92;;
69057;SDS011;56128;37.534;-122.308;2024-02-26T07:32:15;6.75;;;2.80;;
69057;SDS011;56128;37.534;-122.308;2024-02-26T07:34:42;7.68;;;3.00;;
69057;SDS011;56128;37.534;-122.308;2024-02-26T07:37:10;8.48;;;3.00;;
69057;SDS011;56128;37.534;-122.308;2024-02-26T07:39:36;5.60;;;2.97;;
69057;SDS011;56128;37.534;-122.308;2024-02-26T07:42:03;5.97;;;3.58;;
69057;SDS011;56128;37.534;-122.308;2024-02-26T07:44:29;8.50;;;3.25;;
69057;SDS011;56128;37.534;-122.308;2024-02-26T07:46:55;6.05;;;2.83;;
69057;SDS011;56128;37.534;-122.308;2024-02-26T07:49:21;7.97;;;2.90;;
69057;SDS011;56128;37.534;-122.308;2024-02-26T07:51:47;3.85;;;2.88;;
69057;SDS011;56128;37.534;-122.308;2024-02-26T07:54:14;5.53;;;2.90;;
69057;SDS011;56128;37.534;-122.308;2024-02-26T07:56:41;3.85;;;3.00;;
69057;SDS011;56128;37.534;-122.308;2024-02-26T07:59:07;5.13;;;2.67;;
69057;SDS011;56128;37.534;-122.308;2024-02-26T08:01:34;6.60;;;2.85;;
69057;SDS011;56128;37.534;-122.308;2024-02-26T08:04:03;4.47;;;2.35;;
69057;SDS011;56128;37.534;-122.308;2024-02-26T08:06:30;5.25;;;2.75;;
69057;SDS011;56128;37.534;-122.308;2024-02-26T08:08:56;3.90;;;2.40;;
69057;SDS011;56128;37.534;-122.308;2024-02-26T08:11:22;5.05;;;2.70;;
69057;SDS011;56128;37.534;-122.308;2024-02-26T08:13:48;5.20;;;2.40;;
69057;SDS011;56128;37.534;-122.308;2024-02-26T08:16:14;4.47;;;2.50;;
69057;SDS011;56128;37.534;-122.308;2024-02-26T08:18:41;3.25;;;2.10;;
69057;SDS011;56128;37.534;-122.308;2024-02-26T08:21:07;5.72;;;2.42;;
69057;SDS011;56128;37.534;-122.308;2024-02-26T08:23:34;4.45;;;2.30;;
69057;SDS011;56128;37.534;-122.308;2024-02-26T08:26:00;5.30;;;2.40;;
69057;SDS011;56128;37.534;-122.308;2024-02-26T08:28:26;4.30;;;2.60;;
69057;SDS011;56128;37.534;-122.308;2024-02-26T08:30:52;5.97;;;2.53;;
69057;SDS011;56128;37.534;-122.308;2024-02-26T08:33:18;4.82;;;2.85;;
69057;SDS011;56128;37.534;-122.308;2024-02-26T08:35:44;3.97;;;2.40;;
69057;SDS011;56128;37.534;-122.308;2024-02-26T08:38:10;4.20;;;2.60;;
69057;SDS011;56128;37.534;-122.308;2024-02-26T08:40:36;5.35;;;2.63;;
69057;SDS011;56128;37.534;-122.308;2024-02-26T08:43:03;4.32;;;2.90;;
69057;SDS011;56128;37.534;-122.308;2024-02-26T08:45:29;7.93;;;2.83;;
69057;SDS011;56128;37.534;-122.308;2024-02-26T08:47:55;8.77;;;3.13;;
69057;SDS011;56128;37.534;-122.308;2024-02-26T08:50:21;5.97;;;3.08;;
69057;SDS011;56128;37.534;-122.308;2024-02-26T08:52:47;4.07;;;2.65;;
69057;SDS011;56128;37.534;-122.308;2024-02-26T08:55:16;4.43;;;2.90;;
69057;SDS011;56128;37.534;-122.308;2024-02-26T08:57:42;5.47;;;2.72;;
69057;SDS011;56128;37.534;-122.308;2024-02-26T09:00:09;5.97;;;2.60;;
69057;SDS011;56128;37.534;-122.308;2024-02-26T09:02:36;5.93;;;3.00;;
69057;SDS011;56128;37.534;-122.308;2024-02-26T09:05:04;5.75;;;3.03;;
69057;SDS011;56128;37.534;-122.308;2024-02-26T09:07:31;8.88;;;2.83;;
69057;SDS011;56128;37.534;-122.308;2024-02-26T09:09:57;5.68;;;3.28;;
69057;SDS011;56128;37.534;-122.308;2024-02-26T09:12:23;7.78;;;3.22;;
69057;SDS011;56128;37.534;-122.308;2024-02-26T09:14:49;6.80;;;3.60;;
69057;SDS011;56128;37.534;-122.308;2024-02-26T09:17:15;6.63;;;3.35;;
69057;SDS011;56128;37.534;-122.308;2024-02-26T09:19:42;4.75;;;3.28;;
69057;SDS011;56128;37.534;-122.308;2024-02-26T09:22:09;7.25;;;3.35;;
69057;SDS011;56128;37.534;-122.308;2024-02-26T09:24:35;6.40;;;3.90;;
69057;SDS011;56128;37.534;-122.308;2024-02-26T09:27:02;7.53;;;3.58;;
69057;SDS011;56128;37.534;-122.308;2024-02-26T09:29:28;6.85;;;3.85;;
69057;SDS011;56128;37.534;-122.308;2024-02-26T09:31:54;6.70;;;3.03;;
69057;SDS011;56128;37.534;-122.308;2024-02-26T09:34:20;4.82;;;2.85;;
69057;SDS011;56128;37.534;-122.308;2024-02-26T09:36:46;6.82;;;3.15;;
69057;SDS011;56128;37.534;-122.308;2024-02-26T09:39:12;6.80;;;2.88;;
69057;SDS011;56128;37.534;-122.308;2024-02-26T09:41:40;3.90;;;2.80;;
69057;SDS011;56128;37.534;-122.308;2024-02-26T09:44:06;5.68;;;2.70;;
69057;SDS011;56128;37.534;-122.308;2024-02-26T09:46:34;6.07;;;2.40;;
69057;SDS011;56128;37.534;-122.308;2024-02-26T09:49:01;5.78;;;2.88;;
69057;SDS011;56128;37.534;-122.308;2024-02-26T09:51:27;6.80;;;2.65;;
69057;SDS011;56128;37.534;-122.308;2024-02-26T09:53:54;5.20;;;2.40;;
69057;SDS011;56128;37.534;-122.308;2024-02-26T09:56:21;7.50;;;3.20;;
69057;SDS011;56128;37.534;-122.308;2024-02-26T09:58:48;4.30;;;2.78;;
69057;SDS011;56128;37.534;-122.308;2024-02-26T10:01:18;7.32;;;2.72;;
69057;SDS011;56128;37.534;-122.308;2024-02-26T10:03:48;5.70;;;3.10;;
69057;SDS011;56128;37.534;-122.308;2024-02-26T10:06:20;6.65;;;3.03;;
69057;SDS011;56128;37.534;-122.308;2024-02-26T10:08:46;5.90;;;2.92;;
69057;SDS011;56128;37.534;-122.308;2024-02-26T10:11:14;5.20;;;2.75;;
69057;SDS011;56128;37.534;-122.308;2024-02-26T10:13:41;5.20;;;2.70;;
69057;SDS011;56128;37.534;-122.308;2024-02-26T10:16:07;7.57;;;3.13;;
69057;SDS011;56128;37.534;-122.308;2024-02-26T10:18:46;7.05;;;2.97;;
69057;SDS011;56128;37.534;-122.308;2024-02-26T10:21:16;6.80;;;2.60;;
69057;SDS011;56128;37.534;-122.308;2024-02-26T10:23:46;4.53;;;2.70;;
69057;SDS011;56128;37.534;-122.308;2024-02-26T10:26:16;5.10;;;2.50;;
69057;SDS011;56128;37.534;-122.308;2024-02-26T10:28:43;5.40;;;2.17;;
69057;SDS011;56128;37.534;-122.308;2024-02-26T10:31:10;9.98;;;3.13;;
69057;SDS011;56128;37.534;-122.308;2024-02-26T10:33:39;6.20;;;2.60;;
69057;SDS011;56128;37.534;-122.308;2024-02-26T10:36:05;6.38;;;2.45;;
69057;SDS011;56128;37.534;-122.308;2024-02-26T10:38:36;6.40;;;2.67;;
69057;SDS011;56128;37.534;-122.308;2024-02-26T10:41:03;4.68;;;2.65;;
69057;SDS011;56128;37.534;-122.308;2024-02-26T10:43:31;4.25;;;2.25;;
69057;SDS011;56128;37.534;-122.308;2024-02-26T10:45:57;4.78;;;2.30;;
69057;SDS011;56128;37.534;-122.308;2024-02-26T10:48:24;4.55;;;2.70;;
69057;SDS011;56128;37.534;-122.308;2024-02-26T10:50:50;6.50;;;2.38;;
69057;SDS011;56128;37.534;-122.308;2024-02-26T10:53:20;4.38;;;2.70;;
69057;SDS011;56128;37.534;-122.308;2024-02-26T10:56:01;5.07;;;2.45;;
69057;SDS011;56128;37.534;-122.308;2024-02-26T10:58:29;4.60;;;2.58;;
69057;SDS011;56128;37.534;-122.308;2024-02-26T11:00:56;6.22;;;2.58;;
69057;SDS011;56128;37.534;-122.308;2024-02-26T11:03:24;7.60;;;2.95;;
69057;SDS011;56128;37.534;-122.308;2024-02-26T11:05:51;7.53;;;2.50;;
69057;SDS011;56128;37.534;-122.308;2024-02-26T11:08:21;4.78;;;2.22;;
69057;SDS011;56128;37.534;-122.308;2024-02-26T11:10:50;5.15;;;2.50;;
69057;SDS011;56128;37.534;-122.308;2024-02-26T11:13:18;4.93;;;2.67;;
69057;SDS011;56128;37.534;-122.308;2024-02-26T11:15:47;3.88;;;2.50;;
69057;SDS011;56128;37.534;-122.308;2024-02-26T11:18:16;5.82;;;2.70;;
69057;SDS011;56128;37.534;-122.308;2024-02-26T11:20:45;6.72;;;2.95;;
69057;SDS011;56128;37.534;-122.308;2024-02-26T11:23:11;8.55;;;2.65;;
69057;SDS011;56128;37.534;-122.308;2024-02-26T11:25:38;6.20;;;2.80;;
69057;SDS011;56128;37.534;-122.308;2024-02-26T11:28:09;5.55;;;2.75;;
69057;SDS011;56128;37.534;-122.308;2024-02-26T11:30:42;5.15;;;2.50;;
69057;SDS011;56128;37.534;-122.308;2024-02-26T11:33:11;4.10;;;2.35;;
69057;SDS011;56128;37.534;-122.308;2024-02-26T11:35:38;5.78;;;2.85;;
69057;SDS011;56128;37.534;-122.308;2024-02-26T11:38:04;6.50;;;2.53;;
69057;SDS011;56128;37.534;-122.308;2024-02-26T11:40:33;4.35;;;2.42;;
69057;SDS011;56128;37.534;-122.308;2024-02-26T11:43:07;6.13;;;2.78;;
69057;SDS011;56128;37.534;-122.308;2024-02-26T11:48:12;6.70;;;2.92;;
69057;SDS011;56128;37.534;-122.308;2024-02-26T11:50:39;6.05;;;2.80;;
69057;SDS011;56128;37.534;-122.308;2024-02-26T11:53:19;5.20;;;2.60;;
69057;SDS011;56128;37.534;-122.308;2024-02-26T11:58:40;7.07;;;3.13;;
69057;SDS011;56128;37.534;-122.308;2024-02-26T12:01:35;5.40;;;2.92;;
69057;SDS011;56128;37.534;-122.308;2024-02-26T12:06:52;4.53;;;3.50;;
69057;SDS011;56128;37.534;-122.308;2024-02-26T12:09:37;6.20;;;3.13;;
69057;SDS011;56128;37.534;-122.308;2024-02-26T12:12:05;5.50;;;2.70;;
69057;SDS011;56128;37.534;-122.308;2024-02-26T12:14:39;5.43;;;2.75;;
69057;SDS011;56128;37.534;-122.308;2024-02-26T12:17:19;6.97;;;2.85;;
69057;SDS011;56128;37.534;-122.308;2024-02-26T12:19:46;5.45;;;2.70;;
69057;SDS011;56128;37.534;-122.308;2024-02-26T12:22:13;6.70;;;2.95;;
69057;SDS011;56128;37.534;-122.308;2024-02-26T12:24:41;6.22;;;2.92;;
69057;SDS011;56128;37.534;-122.308;2024-02-26T12:27:07;7.88;;;2.75;;
69057;SDS011;56128;37.534;-122.308;2024-02-26T12:29:34;14.32;;;2.90;;
69057;SDS011;56128;37.534;-122.308;2024-02-26T12:32:00;4.60;;;2.67;;
69057;SDS011;56128;37.534;-122.308;2024-02-26T12:34:28;4.38;;;2.95;;
69057;SDS011;56128;37.534;-122.308;2024-02-26T12:36:54;6.07;;;2.83;;
69057;SDS011;56128;37.534;-122.308;2024-02-26T12:39:20;7.00;;;3.00;;
69057;SDS011;56128;37.534;-122.308;2024-02-26T12:41:47;5.18;;;3.15;;
69057;SDS011;56128;37.534;-122.308;2024-02-26T12:44:17;6.95;;;2.92;;
69057;SDS011;56128;37.534;-122.308;2024-02-26T12:46:43;4.22;;;2.83;;
69057;SDS011;56128;37.534;-122.308;2024-02-26T12:49:18;6.35;;;3.30;;
69057;SDS011;56128;37.534;-122.308;2024-02-26T12:51:45;6.47;;;3.42;;
69057;SDS011;56128;37.534;-122.308;2024-02-26T12:54:11;7.00;;;3.40;;
69057;SDS011;56128;37.534;-122.308;2024-02-26T12:56:38;5.60;;;3.58;;
69057;SDS011;56128;37.534;-122.308;2024-02-26T12:59:05;5.20;;;3.53;;
69057;SDS011;56128;37.534;-122.308;2024-02-26T13:01:31;5.47;;;3.50;;
69057;SDS011;56128;37.534;-122.308;2024-02-26T13:03:58;8.93;;;3.47;;
69057;SDS011;56128;37.534;-122.308;2024-02-26T13:06:26;6.13;;;3.78;;
69057;SDS011;56128;37.534;-122.308;2024-02-26T13:08:55;5.97;;;4.28;;
69057;SDS011;56128;37.534;-122.308;2024-02-26T13:11:23;8.43;;;4.10;;
69057;SDS011;56128;37.534;-122.308;2024-02-26T13:13:49;10.52;;;4.28;;
69057;SDS011;56128;37.534;-122.308;2024-02-26T13:16:16;8.13;;;4.07;;
69057;SDS011;56128;37.534;-122.308;2024-02-26T13:18:42;7.68;;;4.18;;
69057;SDS011;56128;37.534;-122.308;2024-02-26T13:21:10;6.68;;;4.28;;
69057;SDS011;56128;37.534;-122.308;2024-02-26T13:23:40;7.88;;;4.80;;
69057;SDS011;56128;37.534;-122.308;2024-02-26T13:26:07;7.18;;;4.43;;
69057;SDS011;56128;37.534;-122.308;2024-02-26T13:28:35;8.20;;;4.80;;
69057;SDS011;56128;37.534;-122.308;2024-02-26T13:31:01;8.40;;;4.45;;
69057;SDS011;56128;37.534;-122.308;2024-02-26T13:33:30;9.02;;;4.78;;
69057;SDS011;56128;37.534;-122.308;2024-02-26T13:35:56;6.75;;;4.50;;
69057;SDS011;56128;37.534;-122.308;2024-02-26T13:38:23;7.65;;;4.22;;
69057;SDS011;56128;37.534;-122.308;2024-02-26T13:40:51;10.07;;;4.88;;
69057;SDS011;56128;37.534;-122.308;2024-02-26T13:43:18;10.48;;;4.72;;
69057;SDS011;56128;37.534;-122.308;2024-02-26T13:45:45;8.45;;;4.30;;
69057;SDS011;56128;37.534;-122.308;2024-02-26T13:48:12;8.95;;;4.90;;
69057;SDS011;56128;37.534;-122.308;2024-02-26T13:50:40;7.93;;;4.82;;
69057;SDS011;56128;37.534;-122.308;2024-02-26T13:53:08;10.23;;;5.00;;
69057;SDS011;56128;37.534;-122.308;2024-02-26T13:55:34;7.63;;;4.82;;
69057;SDS011;56128;37.534;-122.308;2024-02-26T13:58:01;8.63;;;5.22;;
69057;SDS011;56128;37.534;-122.308;2024-02-26T14:00:28;10.00;;;5.63;;
69057;SDS011;56128;37.534;-122.308;2024-02-26T14:02:57;8.40;;;5.35;;
69057;SDS011;56128;37.534;-122.308;2024-02-26T14:05:24;9.38;;;5.30;;
69057;SDS011;56128;37.534;-122.308;2024-02-26T14:07:50;9.63;;;5.80;;
69057;SDS011;56128;37.534;-122.308;2024-02-26T14:10:16;9.15;;;5.70;;
69057;SDS011;56128;37.534;-122.308;2024-02-26T14:12:42;7.38;;;5.30;;
69057;SDS011;56128;37.534;-122.308;2024-02-26T14:15:09;11.77;;;5.30;;